Flight Track Log - Related Links

Times and Time Zones

All times are in EDT time to prevent confusion due to time zone crossing. See the RPA3339 flight status page for this flight to view local times or setup timezone preferences in your user account.

Time Position Orientation Groundspeed Altitude Reporting Facility
EDT Latitude Longitude Course Direction KTS MPH feet Rate Location/Type
Fri 08:35:10 AM 38.8833 -77.0667 225° Southwest 188 216 2,400  Level Potomac TRACON
Fri 08:36:04 AM 38.9333 -77.1167 322° Northwest 241 277 5,400 3,247 Climbing Potomac TRACON
Fri 08:36:35 AM 38.9533 -77.1450 312° West 238 274 7,000 2,674 Climbing Washington Center
Fri 08:37:36 AM 38.9836 -77.2258 296° West 279 321 9,500 2,430 Climbing Washington Center
Fri 08:38:36 AM 38.9161 -77.2750 210° Southwest 314 361 11,900 2,797 Climbing Washington Center
Fri 08:39:34 AM 38.8425 -77.3214 206° Southwest 333 383 15,000 1,563 Climbing Washington Center
Fri 08:40:00 AM 38.4966 -77.4307 225° Southwest  Level FlightAware Approximate
Fri 08:40:35 AM 38.7606 -77.3700 205° Southwest 321 369 15,000  Level Washington Center
Fri 08:41:36 AM 38.6786 -77.4133 202° Southwest 321 369 15,000  Level Washington Center
Fri 08:42:34 AM 38.5925 -77.4589 202° Southwest 321 369 15,000 1,220 Level Washington Center
Fri 08:43:34 AM 38.4956 -77.5150 204° Southwest 337 388 17,400 2,262 Climbing Washington Center
Fri 08:44:36 AM 38.4094 -77.5603 202° Southwest 354 407 19,600 1,800 Climbing Washington Center
Fri 08:45:34 AM 38.3144 -77.6372 212° Southwest 367 422 21,000 706 Climbing Washington Center
Fri 08:46:35 AM 38.2297 -77.7117 215° Southwest 379 436 21,000  Level Washington Center
Fri 08:47:35 AM 38.1428 -77.7858 214° Southwest 384 442 21,000  Level Washington Center
Fri 08:48:36 AM 38.0558 -77.8597 214° Southwest 384 442 21,000  Level Washington Center
Fri 08:49:34 AM 37.9817 -77.9233 214° Southwest 372 428 21,000  Level Washington Center
Fri 08:50:34 AM 37.8947 -77.9969 214° Southwest 377 434 21,000  Level Washington Center
Fri 08:51:36 AM 37.8100 -78.0678 213° Southwest 377 434 21,000  Level Washington Center
Fri 08:52:34 AM 37.7142 -78.1514 215° Southwest 383 441 21,000  Level Washington Center
Fri 08:53:35 AM 37.6378 -78.2142 213° Southwest 378 435 21,000 50 Level Washington Center
Fri 08:54:35 AM 37.5422 -78.2947 214° Southwest 378 435 21,100 50 Climbing Washington Center
Fri 08:55:35 AM 37.4656 -78.3575 213° Southwest 378 435 21,100 -50 Level Washington Center
Fri 08:56:36 AM 37.3742 -78.4378 215° Southwest 373 429 21,000 -50 Descending Washington Center
Fri 08:57:34 AM 37.2975 -78.5003 213° Southwest 367 422 21,000  Level Washington Center
Fri 08:58:35 AM 37.2017 -78.5828 214° Southwest 377 434 21,000  Level Washington Center
Fri 08:59:35 AM 37.1250 -78.6447 213° Southwest 377 434 21,000  Level Washington Center
Fri 09:00:36 AM 37.0311 -78.7217 213° Southwest 377 434 21,000  Level Washington Center
Fri 09:01:36 AM 36.9542 -78.7861 214° Southwest 377 434 21,000 -51 Level Washington Center
Fri 09:02:34 AM 36.8606 -78.8628 213° Southwest 377 434 20,900 -915 Descending Washington Center
Fri 09:03:34 AM 36.7856 -78.9269 214° Southwest 377 434 19,200 -1,835 Descending Washington Center
Fri 09:04:35 AM 36.6939 -78.9956 211° Southwest 364 419 17,200 -2,085 Descending Washington Center
Fri 09:05:32 AM 36.6000 -78.9967 181° South 350 403 15,100 -1,979 Descending Washington Center
Fri 09:06:09 AM 36.5483 -78.9814 167° South 344 396 14,100 -1,645 Descending Washington Center
Fri 09:06:34 AM 36.5131 -78.9747 171° South 339 390 13,400 -1,846 Descending Washington Center
Fri 09:07:01 AM 36.4678 -78.9547 160° South 331 381 12,500 -1,400 Descending Washington Center
Fri 09:07:34 AM 36.4261 -78.9478 172° South 333 383 12,000 -455 Descending Washington Center
Fri 09:08:07 AM 36.3619 -78.9269 165° South 330 380 12,000  Level Washington Center
Fri 09:08:34 AM 36.3250 -78.9150 165° South 333 383 12,000  Level Washington Center
Fri 09:09:11 AM 36.2750 -78.9028 169° South 330 380 12,000 -295 Level Washington Center
Fri 09:09:35 AM 36.2358 -78.8883 163° South 333 383 11,700 -1,400 Descending Washington Center
Fri 09:10:11 AM 36.1839 -78.8783 171° South 327 376 10,600 -1,900 Descending Washington Center
Fri 09:10:35 AM 36.1511 -78.8642 161° South 326 375 9,800 -1,636 Descending Washington Center
Fri 09:11:06 AM 36.1075 -78.8544 170° South 310 357 9,100 -1,258 Descending Washington Center
Fri 09:11:37 AM 36.0783 -78.8483 170° South 319 367 8,500 -1,138 Descending Washington Center
Fri 09:12:04 AM 36.0286 -78.8411 173° South 273 314 8,000 -526 Descending Washington Center
Fri 09:12:34 AM 36.0014 -78.8450 187° South 298 343 8,000 -381 Level Washington Center
Fri 09:13:07 AM 35.9636 -78.8536 190° South 233 268 7,600 -1,000 Descending Washington Center
Fri 09:13:34 AM 35.9422 -78.8733 217° Southwest 256 295 7,000 -1,279 Descending Washington Center
Fri 09:14:08 AM 35.9056 -78.9078 217° Southwest 236 272 6,300 -984 Descending Washington Center
Fri 09:14:35 AM 35.8925 -78.9278 231° Southwest 237 273 6,000 -1,182 Descending Washington Center
Fri 09:15:14 AM 35.8600 -78.9700 226° Southwest 230 265 5,000 -1,212 Descending Washington Center
Fri 09:16:14 AM 35.8169 -79.0244 226° Southwest 227 261 4,000 -500 Descending Washington Center
Fri 09:17:14 AM 35.7683 -79.0428 197° South 202 232 4,000 -149 Level Washington Center
Fri 09:18:15 AM 35.7489 -78.9883 114° Southeast 180 207 3,700 -492 Descending Washington Center
Fri 09:19:16 AM 35.7733 -78.9356 60° Northeast 170 196 3,000 -686 Descending Washington Center
Fri 09:21:10 AM 35.8278 -78.8608 48° Northeast 130 150 1,700 -686 Descending Washington Center
Fri 09:22:11 AM 35.8514 -78.8286 48° Northeast 134 154 1,000 -689 Descending Washington Center

Login

Don't have an account? Register now (free) for customized features, flight alerts, and more!